sensor_id;sensor_type;location;lat;lon;timestamp;pressure;altitude;pressure_sealevel;temperature;humidity
75594;BME280;64176;49.156;7.810;2024-02-04T00:00:10;100307.47;;;6.99;100.00
75594;BME280;64176;49.156;7.810;2024-02-04T00:02:56;100318.06;;;7.08;100.00
75594;BME280;64176;49.156;7.810;2024-02-04T00:05:41;100297.41;;;7.05;100.00
75594;BME280;64176;49.156;7.810;2024-02-04T00:08:25;100281.00;;;7.02;100.00
75594;BME280;64176;49.156;7.810;2024-02-04T00:11:09;100275.81;;;7.00;100.00
75594;BME280;64176;49.156;7.810;2024-02-04T00:13:57;100267.84;;;6.92;100.00
75594;BME280;64176;49.156;7.810;2024-02-04T00:16:44;100276.63;;;6.99;100.00
75594;BME280;64176;49.156;7.810;2024-02-04T00:19:30;100269.09;;;7.04;100.00
75594;BME280;64176;49.156;7.810;2024-02-04T00:22:17;100268.84;;;6.98;100.00
75594;BME280;64176;49.156;7.810;2024-02-04T00:25:03;100283.56;;;7.02;100.00
75594;BME280;64176;49.156;7.810;2024-02-04T00:27:55;100271.66;;;7.04;100.00
75594;BME280;64176;49.156;7.810;2024-02-04T00:30:40;100275.00;;;7.01;100.00
75594;BME280;64176;49.156;7.810;2024-02-04T00:33:25;100275.09;;;7.04;100.00
75594;BME280;64176;49.156;7.810;2024-02-04T00:36:09;100268.22;;;7.03;100.00
75594;BME280;64176;49.156;7.810;2024-02-04T00:38:58;100269.16;;;7.05;100.00
75594;BME280;64176;49.156;7.810;2024-02-04T00:41:49;100256.78;;;6.95;100.00
75594;BME280;64176;49.156;7.810;2024-02-04T00:44:33;100270.91;;;7.06;100.00
75594;BME280;64176;49.156;7.810;2024-02-04T00:47:18;100269.97;;;7.04;100.00
75594;BME280;64176;49.156;7.810;2024-02-04T00:50:05;100267.41;;;7.04;100.00
75594;BME280;64176;49.156;7.810;2024-02-04T00:52:49;100252.03;;;7.06;100.00
75594;BME280;64176;49.156;7.810;2024-02-04T00:55:33;100265.63;;;7.03;100.00
75594;BME280;64176;49.156;7.810;2024-02-04T00:58:17;100275.16;;;7.06;100.00
75594;BME280;64176;49.156;7.810;2024-02-04T01:01:04;100276.91;;;7.07;100.00
75594;BME280;64176;49.156;7.810;2024-02-04T01:03:48;100256.94;;;7.00;100.00
75594;BME280;64176;49.156;7.810;2024-02-04T01:06:35;100264.00;;;7.05;100.00
75594;BME280;64176;49.156;7.810;2024-02-04T01:09:19;100258.75;;;7.02;100.00
75594;BME280;64176;49.156;7.810;2024-02-04T01:12:03;100269.22;;;7.07;100.00
75594;BME280;64176;49.156;7.810;2024-02-04T01:14:52;100270.03;;;7.06;100.00
75594;BME280;64176;49.156;7.810;2024-02-04T01:17:36;100257.88;;;7.02;100.00
75594;BME280;64176;49.156;7.810;2024-02-04T01:20:23;100281.94;;;7.04;100.00
75594;BME280;64176;49.156;7.810;2024-02-04T01:23:07;100284.34;;;6.99;100.00
75594;BME280;64176;49.156;7.810;2024-02-04T01:25:55;100295.81;;;7.09;100.00
75594;BME280;64176;49.156;7.810;2024-02-04T01:28:41;100301.78;;;7.08;100.00
75594;BME280;64176;49.156;7.810;2024-02-04T01:31:28;100287.66;;;6.97;100.00
75594;BME280;64176;49.156;7.810;2024-02-04T01:34:14;100289.47;;;6.99;100.00
75594;BME280;64176;49.156;7.810;2024-02-04T01:37:00;100285.38;;;7.04;100.00
75594;BME280;64176;49.156;7.810;2024-02-04T01:39:44;100296.47;;;7.03;100.00
75594;BME280;64176;49.156;7.810;2024-02-04T01:42:29;100294.66;;;7.01;100.00
75594;BME280;64176;49.156;7.810;2024-02-04T01:45:13;100298.38;;;7.09;100.00
75594;BME280;64176;49.156;7.810;2024-02-04T01:47:57;100295.75;;;7.07;100.00
75594;BME280;64176;49.156;7.810;2024-02-04T01:50:42;100298.50;;;7.12;100.00
75594;BME280;64176;49.156;7.810;2024-02-04T01:53:28;100292.91;;;7.00;100.00
75594;BME280;64176;49.156;7.810;2024-02-04T01:56:13;100288.59;;;6.99;100.00
75594;BME280;64176;49.156;7.810;2024-02-04T01:58:58;100274.72;;;6.93;100.00
75594;BME280;64176;49.156;7.810;2024-02-04T02:01:45;100287.97;;;7.04;100.00
75594;BME280;64176;49.156;7.810;2024-02-04T02:04:31;100289.59;;;7.02;100.00
75594;BME280;64176;49.156;7.810;2024-02-04T02:07:15;100292.97;;;7.01;100.00
75594;BME280;64176;49.156;7.810;2024-02-04T02:10:04;100284.38;;;7.01;100.00
75594;BME280;64176;49.156;7.810;2024-02-04T02:12:59;100287.72;;;6.98;100.00
75594;BME280;64176;49.156;7.810;2024-02-04T02:15:48;100291.09;;;6.97;100.00
75594;BME280;64176;49.156;7.810;2024-02-04T02:18:47;100294.50;;;6.96;100.00
75594;BME280;64176;49.156;7.810;2024-02-04T02:24:41;100277.16;;;6.90;100.00
75594;BME280;64176;49.156;7.810;2024-02-04T02:27:28;100285.75;;;6.91;100.00
75594;BME280;64176;49.156;7.810;2024-02-04T02:30:17;100280.63;;;6.91;100.00
75594;BME280;64176;49.156;7.810;2024-02-04T02:33:04;100292.78;;;6.95;100.00
75594;BME280;64176;49.156;7.810;2024-02-04T02:35:53;100276.47;;;6.94;100.00
75594;BME280;64176;49.156;7.810;2024-02-04T02:38:53;100270.53;;;6.96;100.00
75594;BME280;64176;49.156;7.810;2024-02-04T02:41:50;100230.34;;;6.75;100.00
75594;BME280;64176;49.156;7.810;2024-02-04T02:44:39;100261.06;;;6.94;100.00
75594;BME280;64176;49.156;7.810;2024-02-04T02:47:27;100267.88;;;6.94;100.00
75594;BME280;64176;49.156;7.810;2024-02-04T02:50:13;100264.31;;;6.90;100.00
75594;BME280;64176;49.156;7.810;2024-02-04T02:53:00;100271.22;;;6.91;100.00
75594;BME280;64176;49.156;7.810;2024-02-04T02:55:47;100267.09;;;6.97;100.00
75594;BME280;64176;49.156;7.810;2024-02-04T02:58:31;100267.09;;;6.97;100.00
75594;BME280;64176;49.156;7.810;2024-02-04T03:01:18;100259.38;;;6.95;100.00
75594;BME280;64176;49.156;7.810;2024-02-04T03:04:07;100242.28;;;6.97;100.00
75594;BME280;64176;49.156;7.810;2024-02-04T03:06:56;100242.19;;;6.94;100.00
75594;BME280;64176;49.156;7.810;2024-02-04T03:09:43;100233.81;;;7.00;100.00
75594;BME280;64176;49.156;7.810;2024-02-04T03:12:28;100227.16;;;7.05;100.00
75594;BME280;64176;49.156;7.810;2024-02-04T03:15:12;100233.97;;;7.04;100.00
75594;BME280;64176;49.156;7.810;2024-02-04T03:17:56;100226.16;;;7.01;100.00
75594;BME280;64176;49.156;7.810;2024-02-04T03:20:43;100221.94;;;7.03;100.00
75594;BME280;64176;49.156;7.810;2024-02-04T03:23:27;100221.06;;;7.03;100.00
75594;BME280;64176;49.156;7.810;2024-02-04T03:26:16;100227.84;;;7.01;100.00
75594;BME280;64176;49.156;7.810;2024-02-04T03:29:04;100222.81;;;7.04;100.00
75594;BME280;64176;49.156;7.810;2024-02-04T03:31:51;100222.72;;;7.01;100.00
75594;BME280;64176;49.156;7.810;2024-02-04T03:34:35;100228.94;;;7.07;100.00
75594;BME280;64176;49.156;7.810;2024-02-04T03:37:20;100222.78;;;7.02;100.00
75594;BME280;64176;49.156;7.810;2024-02-04T03:40:04;100231.63;;;7.10;100.00
75594;BME280;64176;49.156;7.810;2024-02-04T03:42:49;100213.19;;;6.98;100.00
75594;BME280;64176;49.156;7.810;2024-02-04T03:45:35;100234.94;;;7.08;100.00
75594;BME280;64176;49.156;7.810;2024-02-04T03:48:19;100234.06;;;7.07;100.00
75594;BME280;64176;49.156;7.810;2024-02-04T03:51:03;100234.06;;;7.07;100.00
75594;BME280;64176;49.156;7.810;2024-02-04T03:53:50;100226.22;;;7.03;100.00
75594;BME280;64176;49.156;7.810;2024-02-04T03:56:37;100216.63;;;6.99;100.00
75594;BME280;64176;49.156;7.810;2024-02-04T03:59:24;100234.91;;;7.06;100.00
75594;BME280;64176;49.156;7.810;2024-02-04T04:02:08;100230.47;;;7.02;100.00
75594;BME280;64176;49.156;7.810;2024-02-04T04:04:52;100223.47;;;6.98;100.00
75594;BME280;64176;49.156;7.810;2024-02-04T04:07:36;100218.28;;;6.97;100.00
75594;BME280;64176;49.156;7.810;2024-02-04T04:10:20;100226.97;;;7.00;100.00
75594;BME280;64176;49.156;7.810;2024-02-04T04:13:06;100231.25;;;7.00;100.00
75594;BME280;64176;49.156;7.810;2024-02-04T04:15:51;100234.88;;;7.05;100.00
75594;BME280;64176;49.156;7.810;2024-02-04T04:18:38;100235.81;;;7.08;100.00
75594;BME280;64176;49.156;7.810;2024-02-04T04:21:24;100225.28;;;7.01;100.00
75594;BME280;64176;49.156;7.810;2024-02-04T04:24:09;100246.84;;;7.04;100.00
75594;BME280;64176;49.156;7.810;2024-02-04T04:26:53;100246.72;;;7.01;100.00
75594;BME280;64176;49.156;7.810;2024-02-04T04:29:37;100242.41;;;7.00;100.00
75594;BME280;64176;49.156;7.810;2024-02-04T04:32:21;100239.06;;;7.03;100.00
75594;BME280;64176;49.156;7.810;2024-02-04T04:35:05;100242.25;;;6.96;100.00
75594;BME280;64176;49.156;7.810;2024-02-04T04:37:50;100249.34;;;7.03;100.00
75594;BME280;64176;49.156;7.810;2024-02-04T04:40:34;100252.63;;;6.99;100.00
75594;BME280;64176;49.156;7.810;2024-02-04T04:43:18;100263.00;;;7.02;100.00
75594;BME280;64176;49.156;7.810;2024-02-04T04:46:02;100259.38;;;6.97;100.00
75594;BME280;64176;49.156;7.810;2024-02-04T04:48:46;100261.81;;;6.92;100.00
75594;BME280;64176;49.156;7.810;2024-02-04T04:51:32;100265.41;;;6.97;100.00
75594;BME280;64176;49.156;7.810;2024-02-04T04:54:19;100261.16;;;6.98;100.00
75594;BME280;64176;49.156;7.810;2024-02-04T04:57:04;100262.56;;;6.89;100.00
75594;BME280;64176;49.156;7.810;2024-02-04T04:59:50;100261.56;;;6.86;100.00
75594;BME280;64176;49.156;7.810;2024-02-04T05:02:37;100275.25;;;6.85;100.00
75594;BME280;64176;49.156;7.810;2024-02-04T05:05:21;100275.03;;;6.79;100.00
75594;BME280;64176;49.156;7.810;2024-02-04T05:08:05;100271.84;;;6.86;100.00
75594;BME280;64176;49.156;7.810;2024-02-04T05:10:50;100284.81;;;6.89;100.00
75594;BME280;64176;49.156;7.810;2024-02-04T05:13:38;100277.00;;;6.86;100.00
75594;BME280;64176;49.156;7.810;2024-02-04T05:16:23;100270.06;;;6.83;100.00
75594;BME280;64176;49.156;7.810;2024-02-04T05:19:07;100265.44;;;6.75;100.00
75594;BME280;64176;49.156;7.810;2024-02-04T05:21:54;100266.31;;;6.75;100.00
75594;BME280;64176;49.156;7.810;2024-02-04T05:24:43;100275.09;;;6.80;100.00
75594;BME280;64176;49.156;7.810;2024-02-04T05:27:29;100258.69;;;6.77;100.00
75594;BME280;64176;49.156;7.810;2024-02-04T05:30:16;100269.28;;;6.86;100.00
75594;BME280;64176;49.156;7.810;2024-02-04T05:33:00;100277.00;;;6.86;100.00
75594;BME280;64176;49.156;7.810;2024-02-04T05:35:44;100257.88;;;6.78;100.00
75594;BME280;64176;49.156;7.810;2024-02-04T05:38:29;100268.19;;;6.79;100.00
75594;BME280;64176;49.156;7.810;2024-02-04T05:41:13;100270.75;;;6.79;100.00
75594;BME280;64176;49.156;7.810;2024-02-04T05:43:57;100264.69;;;6.77;100.00
75594;BME280;64176;49.156;7.810;2024-02-04T05:46:43;100268.19;;;6.79;100.00
75594;BME280;64176;49.156;7.810;2024-02-04T05:49:30;100268.41;;;6.85;100.00
75594;BME280;64176;49.156;7.810;2024-02-04T05:52:14;100265.69;;;6.81;100.00
75594;BME280;64176;49.156;7.810;2024-02-04T05:54:59;100251.72;;;6.74;100.00
75594;BME280;64176;49.156;7.810;2024-02-04T05:57:48;100264.97;;;6.85;100.00
75594;BME280;64176;49.156;7.810;2024-02-04T06:00:34;100265.81;;;6.84;100.00
75594;BME280;64176;49.156;7.810;2024-02-04T06:03:21;100270.09;;;6.85;100.00
75594;BME280;64176;49.156;7.810;2024-02-04T06:06:05;100271.84;;;6.86;100.00
75594;BME280;64176;49.156;7.810;2024-02-04T06:08:52;100244.41;;;6.61;100.00
75594;BME280;64176;49.156;7.810;2024-02-04T06:11:36;100277.06;;;6.87;100.00
75594;BME280;64176;49.156;7.810;2024-02-04T06:14:20;100285.63;;;6.88;100.00
75594;BME280;64176;49.156;7.810;2024-02-04T06:17:04;100286.56;;;6.90;100.00
75594;BME280;64176;49.156;7.810;2024-02-04T06:19:51;100284.88;;;6.90;100.00
75594;BME280;64176;49.156;7.810;2024-02-04T06:22:35;100284.75;;;6.87;100.00
75594;BME280;64176;49.156;7.810;2024-02-04T06:25:23;100273.50;;;6.84;100.00
75594;BME280;64176;49.156;7.810;2024-02-04T06:28:08;100288.09;;;6.85;100.00
75594;BME280;64176;49.156;7.810;2024-02-04T06:30:52;100279.53;;;6.84;100.00
75594;BME280;64176;49.156;7.810;2024-02-04T06:33:41;100281.25;;;6.85;100.00
75594;BME280;64176;49.156;7.810;2024-02-04T06:36:27;100281.09;;;6.81;100.00
75594;BME280;64176;49.156;7.810;2024-02-04T06:39:14;100264.63;;;6.76;100.00
75594;BME280;64176;49.156;7.810;2024-02-04T06:42:10;100276.84;;;6.81;100.00
75594;BME280;64176;49.156;7.810;2024-02-04T06:44:55;100254.28;;;6.74;100.00
75594;BME280;64176;49.156;7.810;2024-02-04T06:47:43;100261.19;;;6.75;100.00
75594;BME280;64176;49.156;7.810;2024-02-04T06:50:27;100256.97;;;6.77;100.00
75594;BME280;64176;49.156;7.810;2024-02-04T06:53:14;100246.50;;;6.71;100.00
75594;BME280;64176;49.156;7.810;2024-02-04T06:55:59;100237.09;;;6.72;100.00
75594;BME280;64176;49.156;7.810;2024-02-04T06:58:43;100256.16;;;6.78;100.00
75594;BME280;64176;49.156;7.810;2024-02-04T07:01:27;100259.63;;;6.79;100.00
75594;BME280;64176;49.156;7.810;2024-02-04T07:04:13;100250.91;;;6.75;100.00
75594;BME280;64176;49.156;7.810;2024-02-04T07:06:58;100253.53;;;6.77;100.00
75594;BME280;64176;49.156;7.810;2024-02-04T07:09:42;100222.81;;;6.56;100.00
75594;BME280;64176;49.156;7.810;2024-02-04T07:12:35;100252.66;;;6.76;100.00
75594;BME280;64176;49.156;7.810;2024-02-04T07:15:22;100251.63;;;6.71;100.00
75594;BME280;64176;49.156;7.810;2024-02-04T07:18:09;100272.47;;;6.79;100.00
75594;BME280;64176;49.156;7.810;2024-02-04T07:20:56;100257.75;;;6.75;100.00
75594;BME280;64176;49.156;7.810;2024-02-04T07:23:42;100262.72;;;6.70;100.00
75594;BME280;64176;49.156;7.810;2024-02-04T07:26:28;100271.94;;;6.65;100.00
75594;BME280;64176;49.156;7.810;2024-02-04T07:29:14;100275.63;;;6.72;100.00
75594;BME280;64176;49.156;7.810;2024-02-04T07:31:59;100253.88;;;6.62;100.00
75594;BME280;64176;49.156;7.810;2024-02-04T07:34:45;100249.50;;;6.60;100.00
75594;BME280;64176;49.156;7.810;2024-02-04T07:37:30;100272.19;;;6.71;100.00
75594;BME280;64176;49.156;7.810;2024-02-04T07:40:16;100268.88;;;6.75;100.00
75594;BME280;64176;49.156;7.810;2024-02-04T07:43:03;100265.22;;;6.69;100.00
75594;BME280;64176;49.156;7.810;2024-02-04T07:45:50;100258.34;;;6.68;100.00
75594;BME280;64176;49.156;7.810;2024-02-04T07:48:37;100243.34;;;6.56;100.00
75594;BME280;64176;49.156;7.810;2024-02-04T07:51:31;100277.53;;;6.77;100.00
75594;BME280;64176;49.156;7.810;2024-02-04T07:54:22;100269.06;;;6.80;100.00
75594;BME280;64176;49.156;7.810;2024-02-04T07:57:06;100265.56;;;6.78;100.00
75594;BME280;64176;49.156;7.810;2024-02-04T07:59:58;100264.63;;;6.76;100.00
75594;BME280;64176;49.156;7.810;2024-02-04T08:02:45;100262.19;;;6.79;100.00
75594;BME280;64176;49.156;7.810;2024-02-04T08:05:29;100264.06;;;6.83;100.00
75594;BME280;64176;49.156;7.810;2024-02-04T08:08:15;100265.50;;;6.76;100.00
75594;BME280;64176;49.156;7.810;2024-02-04T08:11:02;100258.69;;;6.77;100.00
75594;BME280;64176;49.156;7.810;2024-02-04T08:13:46;100266.72;;;6.86;100.00
75594;BME280;64176;49.156;7.810;2024-02-04T08:16:32;100261.38;;;6.80;100.00
75594;BME280;64176;49.156;7.810;2024-02-04T08:19:19;100252.78;;;6.79;100.00
75594;BME280;64176;49.156;7.810;2024-02-04T08:22:08;100254.53;;;6.80;100.00
75594;BME280;64176;49.156;7.810;2024-02-04T08:24:52;100252.97;;;6.84;100.00
75594;BME280;64176;49.156;7.810;2024-02-04T08:27:37;100261.44;;;6.81;100.00
75594;BME280;64176;49.156;7.810;2024-02-04T08:30:21;100251.97;;;6.80;100.00
75594;BME280;64176;49.156;7.810;2024-02-04T08:33:05;100250.34;;;6.82;100.00
75594;BME280;64176;49.156;7.810;2024-02-04T08:35:55;100265.91;;;6.87;100.00
75594;BME280;64176;49.156;7.810;2024-02-04T08:38:39;100270.97;;;6.85;100.00
75594;BME280;64176;49.156;7.810;2024-02-04T08:41:23;100270.22;;;6.88;100.00
75594;BME280;64176;49.156;7.810;2024-02-04T08:44:10;100264.06;;;6.83;100.00
75594;BME280;64176;49.156;7.810;2024-02-04T08:46:59;100260.66;;;6.84;100.00
75594;BME280;64176;49.156;7.810;2024-02-04T08:49:43;100251.78;;;6.76;100.00
75594;BME280;64176;49.156;7.810;2024-02-04T08:52:27;100249.22;;;6.76;100.00
75594;BME280;64176;49.156;7.810;2024-02-04T08:55:12;100263.13;;;6.81;100.00
75594;BME280;64176;49.156;7.810;2024-02-04T08:57:57;100248.69;;;6.84;100.00
75594;BME280;64176;49.156;7.810;2024-02-04T09:00:41;100250.09;;;6.76;100.00
75594;BME280;64176;49.156;7.810;2024-02-04T09:03:27;100250.00;;;6.73;100.00
75594;BME280;64176;49.156;7.810;2024-02-04T09:06:14;100254.47;;;6.79;100.00
75594;BME280;64176;49.156;7.810;2024-02-04T09:08:59;100257.88;;;6.78;100.00
75594;BME280;64176;49.156;7.810;2024-02-04T09:11:43;100249.34;;;6.79;100.00
75594;BME280;64176;49.156;7.810;2024-02-04T09:14:27;100247.03;;;6.86;100.00
75594;BME280;64176;49.156;7.810;2024-02-04T09:17:11;100262.56;;;6.89;100.00
75594;BME280;64176;49.156;7.810;2024-02-04T09:20:00;100263.44;;;6.90;100.00
75594;BME280;64176;49.156;7.810;2024-02-04T09:22:44;100283.88;;;6.87;100.00
75594;BME280;64176;49.156;7.810;2024-02-04T09:25:28;100274.41;;;6.86;100.00
75594;BME280;64176;49.156;7.810;2024-02-04T09:28:15;100271.75;;;6.83;100.00
75594;BME280;64176;49.156;7.810;2024-02-04T09:30:59;100278.88;;;6.90;100.00
75594;BME280;64176;49.156;7.810;2024-02-04T09:33:46;100271.09;;;6.88;100.00
75594;BME280;64176;49.156;7.810;2024-02-04T09:36:30;100280.75;;;6.94;100.00
75594;BME280;64176;49.156;7.810;2024-02-04T09:39:16;100273.84;;;6.93;100.00
75594;BME280;64176;49.156;7.810;2024-02-04T09:42:01;100275.53;;;6.92;100.00
75594;BME280;64176;49.156;7.810;2024-02-04T09:44:47;100277.22;;;6.92;100.00
75594;BME280;64176;49.156;7.810;2024-02-04T09:47:34;100267.94;;;6.96;100.00
75594;BME280;64176;49.156;7.810;2024-02-04T09:50:20;100264.53;;;6.97;100.00
75594;BME280;64176;49.156;7.810;2024-02-04T09:53:08;100269.66;;;6.97;100.00
75594;BME280;64176;49.156;7.810;2024-02-04T09:55:57;100261.94;;;6.95;100.00
75594;BME280;64176;49.156;7.810;2024-02-04T09:58:42;100260.19;;;6.94;100.00
75594;BME280;64176;49.156;7.810;2024-02-04T10:01:26;100266.53;;;7.04;100.00
75594;BME280;64176;49.156;7.810;2024-02-04T10:04:11;100250.28;;;7.05;100.00
75594;BME280;64176;49.156;7.810;2024-02-04T10:06:55;100244.91;;;6.99;100.00
75594;BME280;64176;49.156;7.810;2024-02-04T10:09:45;100259.50;;;7.00;100.00
75594;BME280;64176;49.156;7.810;2024-02-04T10:12:32;100238.75;;;6.93;100.00
75594;BME280;64176;49.156;7.810;2024-02-04T10:15:18;100250.81;;;6.96;100.00
75594;BME280;64176;49.156;7.810;2024-02-04T10:18:05;100241.25;;;6.92;100.00
75594;BME280;64176;49.156;7.810;2024-02-04T10:20:50;100245.78;;;6.99;100.00
75594;BME280;64176;49.156;7.810;2024-02-04T10:23:36;100255.63;;;7.11;100.00
75594;BME280;64176;49.156;7.810;2024-02-04T10:26:27;100249.47;;;7.06;100.00
75594;BME280;64176;49.156;7.810;2024-02-04T10:29:14;100258.94;;;7.08;100.00
75594;BME280;64176;49.156;7.810;2024-02-04T10:32:01;100259.00;;;7.10;100.00
75594;BME280;64176;49.156;7.810;2024-02-04T10:34:50;100259.88;;;7.10;100.00
75594;BME280;64176;49.156;7.810;2024-02-04T10:37:35;100270.34;;;7.15;100.00
75594;BME280;64176;49.156;7.810;2024-02-04T10:40:24;100272.97;;;7.16;100.00
75594;BME280;64176;49.156;7.810;2024-02-04T10:43:08;100266.09;;;7.15;100.00
75594;BME280;64176;49.156;7.810;2024-02-04T10:45:56;100271.41;;;7.21;100.00
75594;BME280;64176;49.156;7.810;2024-02-04T10:48:42;100265.47;;;7.22;100.00
75594;BME280;64176;49.156;7.810;2024-02-04T10:51:30;100262.84;;;7.21;100.00
75594;BME280;64176;49.156;7.810;2024-02-04T10:54:16;100262.84;;;7.21;100.00
75594;BME280;64176;49.156;7.810;2024-02-04T10:57:05;100263.50;;;7.15;100.00
75594;BME280;64176;49.156;7.810;2024-02-04T11:00:02;100255.13;;;7.21;100.00
75594;BME280;64176;49.156;7.810;2024-02-04T11:02:55;100252.72;;;7.25;100.00
75594;BME280;64176;49.156;7.810;2024-02-04T11:05:43;100253.69;;;7.29;100.00
75594;BME280;64176;49.156;7.810;2024-02-04T11:08:28;100255.53;;;7.33;100.00
75594;BME280;64176;49.156;7.810;2024-02-04T11:11:12;100241.81;;;7.32;100.00
75594;BME280;64176;49.156;7.810;2024-02-04T11:14:03;100235.84;;;7.34;100.00
75594;BME280;64176;49.156;7.810;2024-02-04T11:24:45;100238.72;;;7.43;100.00
75594;BME280;64176;49.156;7.810;2024-02-04T11:27:35;100225.78;;;7.40;100.00
75594;BME280;64176;49.156;7.810;2024-02-04T11:30:19;100209.56;;;7.42;100.00
75594;BME280;64176;49.156;7.810;2024-02-04T11:33:05;100216.47;;;7.43;100.00
75594;BME280;64176;49.156;7.810;2024-02-04T11:36:00;100214.19;;;7.52;100.00
75594;BME280;64176;49.156;7.810;2024-02-04T11:38:48;100202.16;;;7.51;100.00
75594;BME280;64176;49.156;7.810;2024-02-04T11:41:44;100197.84;;;7.50;100.00
75594;BME280;64176;49.156;7.810;2024-02-04T11:44:28;100205.03;;;7.60;100.00
75594;BME280;64176;49.156;7.810;2024-02-04T11:47:33;100183.31;;;7.52;100.00
75594;BME280;64176;49.156;7.810;2024-02-04T11:50:30;100171.34;;;7.53;100.00
75594;BME280;64176;49.156;7.810;2024-02-04T11:53:17;100175.00;;;7.59;100.00
75594;BME280;64176;49.156;7.810;2024-02-04T11:56:02;100166.41;;;7.59;100.00
75594;BME280;64176;49.156;7.810;2024-02-04T11:58:49;100174.13;;;7.59;100.00
75594;BME280;64176;49.156;7.810;2024-02-04T12:01:33;100194.94;;;7.66;100.00
75594;BME280;64176;49.156;7.810;2024-02-04T12:04:22;100186.22;;;7.61;100.00
75594;BME280;64176;49.156;7.810;2024-02-04T12:07:08;100194.66;;;7.57;100.00
75594;BME280;64176;49.156;7.810;2024-02-04T12:09:55;100190.38;;;7.58;100.00
75594;BME280;64176;49.156;7.810;2024-02-04T12:12:45;100180.91;;;7.57;100.00
75594;BME280;64176;49.156;7.810;2024-02-04T12:15:37;100188.63;;;7.57;100.00
75594;BME280;64176;49.156;7.810;2024-02-04T12:18:23;100188.78;;;7.61;100.00
75594;BME280;64176;49.156;7.810;2024-02-04T12:21:09;100182.72;;;7.59;100.00
75594;BME280;64176;49.156;7.810;2024-02-04T12:23:56;100188.81;;;7.63;100.00
75594;BME280;64176;49.156;7.810;2024-02-04T12:26:41;100183.66;;;7.63;100.00
75594;BME280;64176;49.156;7.810;2024-02-04T12:29:28;100183.72;;;7.64;100.00
75594;BME280;64176;49.156;7.810;2024-02-04T12:32:13;100180.28;;;7.64;100.00
75594;BME280;64176;49.156;7.810;2024-02-04T12:35:02;100181.84;;;7.59;100.00
75594;BME280;64176;49.156;7.810;2024-02-04T12:37:54;100178.38;;;7.58;100.00
75594;BME280;64176;49.156;7.810;2024-02-04T12:40:40;100187.66;;;7.53;100.00
75594;BME280;64176;49.156;7.810;2024-02-04T12:43:25;100192.78;;;7.53;100.00
75594;BME280;64176;49.156;7.810;2024-02-04T12:46:08;100179.09;;;7.54;100.00
75594;BME280;64176;49.156;7.810;2024-02-04T12:48:58;100186.88;;;7.56;100.00
75594;BME280;64176;49.156;7.810;2024-02-04T12:51:45;100157.59;;;7.51;100.00
75594;BME280;64176;49.156;7.810;2024-02-04T12:54:40;100171.38;;;7.54;100.00
75594;BME280;64176;49.156;7.810;2024-02-04T12:57:27;100163.63;;;7.53;100.00
75594;BME280;64176;49.156;7.810;2024-02-04T13:00:12;100155.34;;;7.61;100.00
75594;BME280;64176;49.156;7.810;2024-02-04T13:02:56;100150.97;;;7.59;100.00
75594;BME280;64176;49.156;7.810;2024-02-04T13:05:43;100145.06;;;7.61;100.00
75594;BME280;64176;49.156;7.810;2024-02-04T13:08:27;100133.97;;;7.64;100.00
75594;BME280;64176;49.156;7.810;2024-02-04T13:11:13;100138.28;;;7.65;100.00
75594;BME280;64176;49.156;7.810;2024-02-04T13:14:05;100138.50;;;7.71;100.00
75594;BME280;64176;49.156;7.810;2024-02-04T13:16:53;100134.16;;;7.70;100.00
75594;BME280;64176;49.156;7.810;2024-02-04T13:19:38;100122.13;;;7.69;100.00
75594;BME280;64176;49.156;7.810;2024-02-04T13:22:25;100113.53;;;7.68;100.00
75594;BME280;64176;49.156;7.810;2024-02-04T13:25:09;100111.06;;;7.72;100.00
75594;BME280;64176;49.156;7.810;2024-02-04T13:27:52;100130.78;;;7.71;100.00
75594;BME280;64176;49.156;7.810;2024-02-04T13:30:39;100099.03;;;7.71;100.00
75594;BME280;64176;49.156;7.810;2024-02-04T13:33:25;100117.97;;;7.73;100.00
75594;BME280;64176;49.156;7.810;2024-02-04T13:36:09;100118.97;;;7.78;100.00
75594;BME280;64176;49.156;7.810;2024-02-04T13:38:54;100117.97;;;7.74;100.00
75594;BME280;64176;49.156;7.810;2024-02-04T13:41:42;100110.00;;;7.65;100.00
75594;BME280;64176;49.156;7.810;2024-02-04T13:44:28;100118.78;;;7.72;100.00
75594;BME280;64176;49.156;7.810;2024-02-04T13:47:13;100120.56;;;7.74;100.00
75594;BME280;64176;49.156;7.810;2024-02-04T13:49:57;100105.66;;;7.64;100.00
75594;BME280;64176;49.156;7.810;2024-02-04T13:52:41;100117.97;;;7.74;100.00
75594;BME280;64176;49.156;7.810;2024-02-04T13:55:27;100118.13;;;7.79;100.00
75594;BME280;64176;49.156;7.810;2024-02-04T13:58:11;100112.72;;;7.70;100.00
75594;BME280;64176;49.156;7.810;2024-02-04T14:00:55;100112.66;;;7.68;100.00
75594;BME280;64176;49.156;7.810;2024-02-04T14:03:39;100116.13;;;7.68;100.00
75594;BME280;64176;49.156;7.810;2024-02-04T14:06:23;100121.97;;;7.64;100.00
75594;BME280;64176;49.156;7.810;2024-02-04T14:09:07;100129.75;;;7.66;100.00
75594;BME280;64176;49.156;7.810;2024-02-04T14:11:51;100124.47;;;7.61;100.00
75594;BME280;64176;49.156;7.810;2024-02-04T14:14:38;100133.88;;;7.61;100.00
75594;BME280;64176;49.156;7.810;2024-02-04T14:17:25;100143.38;;;7.62;100.00
75594;BME280;64176;49.156;7.810;2024-02-04T14:20:12;100145.81;;;7.59;100.00
75594;BME280;64176;49.156;7.810;2024-02-04T14:22:57;100142.38;;;7.58;100.00
75594;BME280;64176;49.156;7.810;2024-02-04T14:25:41;100143.19;;;7.57;100.00
75594;BME280;64176;49.156;7.810;2024-02-04T14:28:25;100140.53;;;7.54;100.00
75594;BME280;64176;49.156;7.810;2024-02-04T14:31:09;100137.84;;;7.51;100.00
75594;BME280;64176;49.156;7.810;2024-02-04T14:33:53;100134.50;;;7.54;100.00
75594;BME280;64176;49.156;7.810;2024-02-04T14:36:37;100136.94;;;7.49;100.00
75594;BME280;64176;49.156;7.810;2024-02-04T14:39:24;100130.06;;;7.48;100.00